Time;durP1;ratioP1;P1;durP2;ratioP2;P2;SDS_P1;SDS_P2;PMS_P1;PMS_P2;Temp;Humidity;BMP_temperature;BMP_pressure;BME280_temperature;BME280_humidity;BME280_pressure;Samples;Min_cycle;Max_cycle;Signal;HPM_P1;HPM_P2
2022/05/28 00:00:21;;;;;;;5.03;1.40;;;11.80;99.90;;;;;;5005286;28;20671;-71
2022/05/28 00:02:48;;;;;;;2.30;1.17;;;11.80;99.90;;;;;;5022023;28;20206;-72
2022/05/28 00:05:15;;;;;;;3.87;1.10;;;11.80;99.90;;;;;;5019995;28;20225;-75
2022/05/28 00:07:41;;;;;;;3.33;1.27;;;11.70;99.90;;;;;;5023464;28;20219;-74
2022/05/28 00:10:12;;;;;;;7.07;1.50;;;11.70;99.90;;;;;;5027637;28;20195;-75
2022/05/28 00:12:39;;;;;;;3.33;1.20;;;11.60;99.90;;;;;;5023824;28;20206;-72
2022/05/28 00:15:06;;;;;;;6.63;1.40;;;11.60;99.90;;;;;;5017608;28;20224;-73
2022/05/28 00:17:33;;;;;;;5.40;1.30;;;11.50;99.90;;;;;;5015845;28;20203;-71
2022/05/28 00:20:00;;;;;;;4.97;1.43;;;11.50;99.90;;;;;;5022394;28;20276;-71
2022/05/28 00:22:27;;;;;;;4.13;1.30;;;11.40;99.90;;;;;;5017976;28;20676;-73
2022/05/28 00:24:55;;;;;;;5.30;1.60;;;11.40;99.90;;;;;;5017934;28;20634;-70
2022/05/28 00:27:22;;;;;;;4.93;1.20;;;11.50;99.90;;;;;;5015383;28;20221;-72
2022/05/28 00:29:48;;;;;;;5.43;1.47;;;11.60;99.90;;;;;;5020442;28;20209;-71
2022/05/28 00:32:15;;;;;;;3.87;1.20;;;11.50;99.90;;;;;;5021868;28;20188;-71
2022/05/28 00:34:42;;;;;;;3.67;1.10;;;11.40;99.90;;;;;;5018596;28;20223;-73
2022/05/28 00:37:08;;;;;;;3.60;1.13;;;11.40;99.90;;;;;;5014348;28;20208;-72
2022/05/28 00:39:35;;;;;;;6.70;1.13;;;11.30;99.90;;;;;;5017268;28;20197;-72
2022/05/28 00:42:02;;;;;;;6.23;1.60;;;11.20;99.90;;;;;;5010909;28;20210;-71
2022/05/28 00:44:29;;;;;;;5.83;1.30;;;11.00;99.90;;;;;;5024517;28;20221;-72
2022/05/28 00:46:57;;;;;;;5.07;1.10;;;10.90;99.90;;;;;;5013469;28;20298;-71
2022/05/28 00:49:29;;;;;;;3.80;1.33;;;10.80;99.90;;;;;;5023822;28;20204;-71
2022/05/28 00:52:01;;;;;;;6.93;1.50;;;10.70;99.90;;;;;;5018960;28;20203;-69
2022/05/28 00:54:33;;;;;;;2.20;1.10;;;10.70;99.90;;;;;;5020068;28;20827;-70
2022/05/28 00:57:02;;;;;;;5.60;1.10;;;10.70;99.90;;;;;;5021168;28;20196;-66
2022/05/28 00:59:29;;;;;;;4.10;1.10;;;10.60;99.90;;;;;;5019526;28;20297;-66
2022/05/28 01:02:02;;;;;;;6.13;1.40;;;10.70;99.90;;;;;;5017200;28;21342;-66
2022/05/28 01:05:07;;;;;;;2.57;1.20;;;10.60;99.90;;;;;;5020556;28;20223;-64
2022/05/28 01:07:59;;;;;;;3.03;1.37;;;10.50;99.90;;;;;;5020268;28;20215;-65
2022/05/28 01:10:53;;;;;;;2.77;1.27;;;10.40;99.90;;;;;;5018436;28;20198;-65
2022/05/28 01:13:48;;;;;;;5.63;1.37;;;10.40;99.90;;;;;;5023127;28;20200;-63
2022/05/28 01:16:19;;;;;;;4.90;1.50;;;10.40;99.90;;;;;;5018843;28;20199;-63
2022/05/28 01:18:50;;;;;;;6.83;1.30;;;10.30;99.90;;;;;;5018722;28;20250;-64
2022/05/28 01:22:05;;;;;;;3.27;1.47;;;10.30;99.90;;;;;;5018633;28;20234;-69
2022/05/28 01:24:52;;;;;;;4.57;1.53;;;10.40;99.90;;;;;;5019492;28;20219;-64
2022/05/28 01:27:27;;;;;;;5.60;1.63;;;10.20;99.90;;;;;;5016449;28;20234;-63
2022/05/28 01:30:01;;;;;;;5.30;1.60;;;10.10;99.90;;;;;;5020046;28;20570;-67
2022/05/28 01:32:30;;;;;;;4.47;1.70;;;10.10;99.90;;;;;;5021882;28;20247;-65
2022/05/28 01:34:59;;;;;;;2.00;1.10;;;10.10;99.90;;;;;;5022287;28;20636;-66
2022/05/28 01:37:26;;;;;;;4.10;1.60;;;10.00;99.90;;;;;;5014965;28;20199;-67
2022/05/28 01:39:55;;;;;;;5.17;1.50;;;9.90;99.90;;;;;;5020128;28;20569;-64
2022/05/28 01:42:23;;;;;;;5.63;1.53;;;9.90;99.90;;;;;;5017705;28;20215;-64
2022/05/28 01:44:51;;;;;;;5.00;1.60;;;9.80;99.90;;;;;;5018771;28;20226;-67
2022/05/28 01:47:18;;;;;;;4.77;1.43;;;9.80;99.90;;;;;;5021625;28;20229;-64
2022/05/28 01:49:46;;;;;;;6.93;1.60;;;9.70;99.90;;;;;;5024435;28;20192;-66
2022/05/28 01:52:15;;;;;;;3.93;1.37;;;9.90;99.90;;;;;;5014981;28;20539;-66
2022/05/28 01:54:45;;;;;;;4.20;1.50;;;9.90;99.90;;;;;;5022179;28;20211;-64
2022/05/28 01:57:13;;;;;;;6.33;1.60;;;9.80;99.90;;;;;;5018866;28;20208;-64
2022/05/28 01:59:41;;;;;;;3.93;1.20;;;9.80;99.90;;;;;;5013017;28;20551;-64
2022/05/28 02:02:14;;;;;;;6.63;1.50;;;9.80;99.90;;;;;;5014077;28;20204;-64
2022/05/28 02:04:43;;;;;;;6.47;1.60;;;9.60;99.90;;;;;;5019784;28;20230;-68
2022/05/28 02:07:10;;;;;;;2.83;1.03;;;9.70;99.90;;;;;;5019449;28;20215;-64
2022/05/28 02:09:44;;;;;;;2.87;1.27;;;9.70;99.90;;;;;;5020584;28;20190;-65
2022/05/28 02:12:35;;;;;;;4.87;1.50;;;9.60;99.90;;;;;;5024862;28;20209;-64
2022/05/28 02:15:11;;;;;;;5.30;1.50;;;9.60;99.90;;;;;;5023960;28;20215;-65
2022/05/28 02:17:44;;;;;;;3.13;1.20;;;9.50;99.90;;;;;;5027516;28;20211;-65
2022/05/28 02:20:30;;;;;;;6.83;1.53;;;9.50;99.90;;;;;;5028100;28;20210;-64
2022/05/28 02:23:27;;;;;;;7.53;1.43;;;9.60;99.90;;;;;;5019549;28;20202;-65
2022/05/28 02:26:10;;;;;;;4.50;1.67;;;9.60;99.90;;;;;;5045104;28;20225;-64
2022/05/28 02:28:40;;;;;;;7.33;1.50;;;9.60;99.90;;;;;;5025615;28;20599;-64
2022/05/28 02:31:16;;;;;;;4.93;1.60;;;9.60;99.90;;;;;;5026778;28;20301;-64
2022/05/28 02:33:44;;;;;;;5.50;1.60;;;9.50;99.90;;;;;;5025930;28;20197;-64
2022/05/28 02:36:13;;;;;;;4.07;1.43;;;9.70;99.90;;;;;;5030692;28;20564;-65
2022/05/28 02:38:40;;;;;;;7.10;1.17;;;9.70;99.90;;;;;;5029249;28;20209;-63
2022/05/28 02:41:07;;;;;;;5.57;1.57;;;9.60;99.90;;;;;;5026705;28;20207;-63
2022/05/28 02:43:34;;;;;;;3.13;1.30;;;9.60;99.90;;;;;;5027165;28;20212;-63
2022/05/28 02:46:02;;;;;;;7.43;1.57;;;9.60;99.90;;;;;;5029611;28;20287;-63
2022/05/28 02:48:29;;;;;;;3.97;1.33;;;9.50;99.90;;;;;;5029751;28;20222;-63
2022/05/28 02:51:06;;;;;;;4.60;1.70;;;9.40;99.90;;;;;;5026844;28;20206;-64
2022/05/28 02:53:33;;;;;;;3.87;1.33;;;9.50;99.90;;;;;;5030610;28;20563;-63
2022/05/28 02:56:00;;;;;;;4.07;1.40;;;9.40;99.90;;;;;;5025458;28;20203;-63
2022/05/28 02:58:27;;;;;;;6.00;1.63;;;9.30;99.90;;;;;;5023474;28;20608;-63
2022/05/28 03:00:53;;;;;;;3.13;1.30;;;9.30;99.90;;;;;;5023107;28;20206;-63
2022/05/28 03:03:20;;;;;;;4.80;1.40;;;9.30;99.90;;;;;;5025409;28;20260;-63
2022/05/28 03:05:48;;;;;;;2.23;1.20;;;9.30;99.90;;;;;;5023122;28;20225;-63
2022/05/28 03:08:15;;;;;;;5.23;1.67;;;9.30;99.90;;;;;;5026848;28;20701;-63
2022/05/28 03:10:42;;;;;;;6.00;1.70;;;9.20;99.90;;;;;;5030331;28;20202;-63
2022/05/28 03:13:09;;;;;;;2.23;1.40;;;9.20;99.90;;;;;;5018993;28;20218;-63
2022/05/28 03:15:36;;;;;;;5.20;1.10;;;9.40;99.90;;;;;;5018149;28;20223;-63
2022/05/28 03:18:03;;;;;;;4.17;1.43;;;9.50;99.90;;;;;;5025241;28;20252;-63
2022/05/28 03:20:30;;;;;;;3.97;1.33;;;9.40;99.90;;;;;;5023251;28;20200;-63
2022/05/28 03:22:58;;;;;;;4.40;1.60;;;9.30;99.90;;;;;;5021583;28;20213;-63
2022/05/28 03:25:25;;;;;;;3.90;1.40;;;9.20;99.90;;;;;;5023332;28;20223;-63
2022/05/28 03:27:52;;;;;;;4.10;1.50;;;9.40;99.90;;;;;;5024655;28;20225;-63
2022/05/28 03:30:19;;;;;;;8.87;1.70;;;9.50;99.90;;;;;;5016561;28;20594;-63
2022/05/28 03:32:45;;;;;;;4.97;1.40;;;9.40;99.90;;;;;;5024285;28;20314;-63
2022/05/28 03:35:12;;;;;;;5.10;1.60;;;9.40;99.90;;;;;;5023606;28;20221;-63
2022/05/28 03:37:39;;;;;;;4.80;2.23;;;9.60;99.90;;;;;;5028080;28;20214;-62
2022/05/28 03:40:06;;;;;;;3.73;1.47;;;9.50;99.90;;;;;;5025331;28;20210;-63
2022/05/28 03:42:33;;;;;;;5.00;1.50;;;9.40;99.90;;;;;;5018839;28;20664;-63
2022/05/28 03:44:59;;;;;;;4.90;2.00;;;9.30;99.90;;;;;;5027476;28;20229;-63
2022/05/28 03:47:26;;;;;;;5.30;1.43;;;9.30;99.90;;;;;;5026262;28;20223;-63
2022/05/28 03:49:53;;;;;;;7.03;1.80;;;9.30;99.90;;;;;;5017364;28;20198;-63
2022/05/28 03:52:19;;;;;;;5.10;1.60;;;9.30;99.90;;;;;;5021902;28;20214;-63
2022/05/28 03:54:46;;;;;;;1.60;1.23;;;9.40;99.90;;;;;;5022134;28;20223;-63
2022/05/28 03:57:17;;;;;;;4.67;1.30;;;9.40;99.90;;;;;;5023092;28;20211;-63
2022/05/28 03:59:43;;;;;;;2.20;1.23;;;9.40;99.90;;;;;;5025621;28;20193;-63
2022/05/28 04:02:11;;;;;;;4.20;1.30;;;9.40;99.90;;;;;;5024119;28;20226;-63
2022/05/28 04:04:38;;;;;;;5.17;1.73;;;9.40;99.90;;;;;;5026988;28;20215;-63
2022/05/28 04:07:05;;;;;;;3.80;1.40;;;9.60;99.90;;;;;;5021980;28;21618;-62
2022/05/28 04:09:32;;;;;;;4.00;1.50;;;9.60;99.90;;;;;;5017022;28;20192;-63
2022/05/28 04:11:58;;;;;;;7.10;1.60;;;9.50;99.90;;;;;;5028585;28;20210;-63
2022/05/28 04:14:25;;;;;;;5.27;1.60;;;9.60;99.90;;;;;;5022788;28;20224;-64
2022/05/28 04:16:52;;;;;;;4.13;1.40;;;9.80;99.90;;;;;;5019557;28;20651;-64
2022/05/28 04:19:19;;;;;;;3.23;1.30;;;9.70;99.90;;;;;;5023209;28;20682;-64
2022/05/28 04:21:47;;;;;;;6.10;1.80;;;9.70;99.90;;;;;;5022649;28;20714;-64
2022/05/28 04:24:14;;;;;;;4.03;1.60;;;9.80;99.90;;;;;;5026721;28;21007;-64
2022/05/28 04:26:41;;;;;;;5.30;2.00;;;9.90;99.90;;;;;;5023259;28;20204;-64
2022/05/28 04:29:08;;;;;;;4.87;1.57;;;10.10;99.90;;;;;;5019341;28;20719;-64
2022/05/28 04:31:35;;;;;;;4.47;1.70;;;10.00;99.90;;;;;;5023965;28;20207;-64
2022/05/28 04:34:02;;;;;;;4.90;1.60;;;10.10;99.90;;;;;;5020753;28;20223;-64
2022/05/28 04:36:29;;;;;;;4.37;1.70;;;10.10;99.90;;;;;;5016356;28;20192;-64
2022/05/28 04:38:55;;;;;;;4.77;1.40;;;10.00;99.90;;;;;;5026862;28;20287;-64
2022/05/28 04:41:22;;;;;;;6.13;1.60;;;10.00;99.90;;;;;;5020004;28;20570;-63
2022/05/28 04:43:49;;;;;;;4.57;1.57;;;10.20;99.90;;;;;;5017345;28;20198;-64
2022/05/28 04:46:15;;;;;;;4.27;1.33;;;10.30;99.90;;;;;;5015160;28;20209;-64
2022/05/28 04:48:43;;;;;;;6.97;1.77;;;10.40;99.90;;;;;;5021805;28;20208;-64
2022/05/28 04:51:09;;;;;;;5.20;1.70;;;10.50;99.90;;;;;;5020469;28;20200;-64
2022/05/28 04:53:36;;;;;;;3.40;1.43;;;10.50;99.90;;;;;;5025036;28;20202;-64
2022/05/28 04:56:03;;;;;;;4.97;1.60;;;10.50;99.90;;;;;;5028684;28;20198;-64
2022/05/28 04:58:30;;;;;;;8.57;1.93;;;10.70;99.90;;;;;;5020980;28;20196;-64
2022/05/28 05:00:56;;;;;;;3.30;1.60;;;10.80;99.90;;;;;;5026051;28;20203;-66
2022/05/28 05:03:23;;;;;;;6.10;1.73;;;10.90;99.90;;;;;;5019504;28;20247;-68
2022/05/28 05:05:50;;;;;;;5.40;1.80;;;11.10;99.90;;;;;;5023439;28;20747;-69
2022/05/28 05:08:17;;;;;;;7.40;1.70;;;11.30;99.90;;;;;;5022340;28;20217;-71
2022/05/28 05:10:46;;;;;;;4.57;1.50;;;11.30;99.90;;;;;;5022288;28;20190;-73
2022/05/28 05:13:13;;;;;;;5.07;1.90;;;11.60;99.90;;;;;;5022460;28;20188;-73
2022/05/28 05:15:40;;;;;;;6.33;1.80;;;11.70;99.90;;;;;;5020873;28;20210;-73
2022/05/28 05:18:07;;;;;;;8.70;2.60;;;11.80;99.90;;;;;;5010702;28;20773;-69
2022/05/28 05:20:34;;;;;;;7.13;1.90;;;11.90;99.90;;;;;;5020841;28;20563;-69
2022/05/28 05:23:01;;;;;;;5.50;1.57;;;12.10;99.90;;;;;;5016868;28;20708;-67
2022/05/28 05:25:27;;;;;;;2.83;1.60;;;12.20;99.90;;;;;;5021577;28;20218;-67
2022/05/28 05:27:54;;;;;;;6.17;1.67;;;12.40;99.90;;;;;;5023966;28;20248;-68
2022/05/28 05:30:22;;;;;;;7.03;1.47;;;12.60;99.90;;;;;;5026852;28;20197;-66
2022/05/28 05:32:48;;;;;;;6.57;1.57;;;12.90;99.90;;;;;;5022738;28;20202;-64
2022/05/28 05:35:15;;;;;;;5.23;1.37;;;13.00;99.90;;;;;;5018482;28;20223;-65
2022/05/28 05:37:42;;;;;;;3.43;1.33;;;13.10;99.90;;;;;;5012189;28;20553;-64
2022/05/28 05:40:10;;;;;;;4.50;1.63;;;13.20;99.90;;;;;;5022401;28;20203;-65
2022/05/28 05:42:37;;;;;;;8.80;1.80;;;13.20;99.90;;;;;;5019225;28;20203;-67
2022/05/28 05:45:04;;;;;;;2.23;1.30;;;13.20;99.90;;;;;;5014461;28;20233;-66
2022/05/28 05:47:31;;;;;;;4.47;1.70;;;13.40;99.90;;;;;;5022707;28;20198;-66
2022/05/28 05:49:58;;;;;;;4.17;1.40;;;13.80;99.90;;;;;;5018421;28;20590;-64
2022/05/28 05:52:24;;;;;;;3.97;1.43;;;13.90;99.90;;;;;;5020860;28;20205;-64
2022/05/28 05:54:52;;;;;;;5.87;1.40;;;13.90;99.90;;;;;;5022581;28;20241;-64
2022/05/28 05:57:19;;;;;;;5.20;1.73;;;13.70;99.90;;;;;;5025833;28;20198;-65
2022/05/28 05:59:45;;;;;;;3.77;1.80;;;13.50;99.90;;;;;;5017548;28;20199;-65
2022/05/28 06:02:12;;;;;;;6.37;1.70;;;13.40;99.90;;;;;;5022765;28;20209;-66
2022/05/28 06:04:39;;;;;;;3.70;1.37;;;13.30;99.90;;;;;;5023758;28;20224;-65
2022/05/28 06:07:07;;;;;;;4.33;1.43;;;13.30;99.90;;;;;;5020140;28;20217;-65
2022/05/28 06:09:34;;;;;;;9.60;1.60;;;13.20;99.90;;;;;;5016550;28;20690;-66
2022/05/28 06:12:02;;;;;;;6.80;1.67;;;13.10;99.90;;;;;;5029158;28;20210;-65
2022/05/28 06:14:30;;;;;;;4.33;1.53;;;13.10;99.90;;;;;;5030463;28;20302;-65
2022/05/28 06:16:56;;;;;;;6.93;1.70;;;13.10;99.90;;;;;;5018681;28;20665;-65
2022/05/28 06:19:23;;;;;;;5.43;1.33;;;13.10;99.90;;;;;;5013990;28;20674;-65
2022/05/28 06:21:50;;;;;;;6.30;1.70;;;13.20;99.90;;;;;;5024620;28;20208;-65
2022/05/28 06:24:17;;;;;;;5.17;1.40;;;13.30;99.90;;;;;;5019885;28;20224;-64
2022/05/28 06:26:43;;;;;;;8.67;1.50;;;13.30;99.90;;;;;;5024734;28;20209;-64
2022/05/28 06:29:10;;;;;;;7.83;1.70;;;13.20;99.90;;;;;;5023001;28;20588;-64
2022/05/28 06:31:37;;;;;;;4.17;1.50;;;13.30;99.90;;;;;;5027072;28;20198;-64
2022/05/28 06:34:03;;;;;;;7.33;2.10;;;13.30;99.90;;;;;;5020047;28;20709;-65
2022/05/28 06:36:30;;;;;;;8.30;1.60;;;13.50;99.90;;;;;;5025883;28;20498;-64
2022/05/28 06:38:57;;;;;;;6.13;1.60;;;13.60;99.90;;;;;;5027762;28;20195;-65
2022/05/28 06:41:23;;;;;;;3.77;1.33;;;13.70;99.90;;;;;;5023081;28;20546;-65
2022/05/28 06:43:51;;;;;;;5.30;1.53;;;13.70;99.90;;;;;;5023125;28;20688;-65
2022/05/28 06:46:18;;;;;;;4.27;1.60;;;13.80;99.90;;;;;;5029484;28;20206;-64
2022/05/28 06:48:46;;;;;;;3.73;1.70;;;13.90;99.90;;;;;;5015964;28;20569;-65
2022/05/28 06:51:13;;;;;;;5.80;1.80;;;14.10;99.90;;;;;;5013780;28;22121;-65
2022/05/28 06:53:41;;;;;;;4.10;1.93;;;14.20;99.90;;;;;;5025863;28;20197;-65
2022/05/28 06:56:10;;;;;;;3.20;1.20;;;14.40;99.90;;;;;;5018266;28;20199;-64
2022/05/28 06:58:38;;;;;;;5.27;1.60;;;14.70;99.90;;;;;;5015885;28;20193;-65
2022/05/28 07:01:09;;;;;;;6.17;1.80;;;14.90;99.90;;;;;;5025298;28;20208;-64
2022/05/28 07:03:39;;;;;;;5.17;1.57;;;15.00;99.90;;;;;;5027224;28;20212;-65
2022/05/28 07:06:06;;;;;;;4.57;1.40;;;16.00;99.90;;;;;;5019217;28;20223;-64
2022/05/28 07:08:33;;;;;;;2.73;1.43;;;16.80;99.90;;;;;;5018308;28;20733;-63
2022/05/28 07:11:02;;;;;;;6.70;1.50;;;16.90;99.90;;;;;;5025127;28;20201;-63
2022/05/28 07:13:29;;;;;;;3.57;1.30;;;16.70;99.90;;;;;;5024767;28;20218;-63
2022/05/28 07:15:56;;;;;;;5.43;1.10;;;16.80;99.90;;;;;;5020569;28;20547;-63
2022/05/28 07:18:23;;;;;;;3.27;1.20;;;16.80;99.90;;;;;;5023594;28;20226;-63
2022/05/28 07:20:50;;;;;;;4.37;1.30;;;16.90;99.90;;;;;;5020299;28;20199;-63
2022/05/28 07:23:19;;;;;;;3.77;1.13;;;17.00;99.90;;;;;;5016377;28;20199;-63
2022/05/28 07:25:47;;;;;;;3.27;0.93;;;16.80;99.90;;;;;;5026711;28;20219;-63
2022/05/28 07:28:33;;;;;;;3.33;1.20;;;16.40;99.90;;;;;;5023163;28;20202;-63
2022/05/28 07:31:15;;;;;;;3.83;1.40;;;16.20;99.90;;;;;;5019858;28;20203;-63
2022/05/28 07:33:44;;;;;;;5.43;1.13;;;16.20;99.90;;;;;;5010365;28;20235;-63
2022/05/28 07:36:13;;;;;;;2.47;1.00;;;16.20;99.90;;;;;;5025304;28;20219;-63
2022/05/28 07:38:42;;;;;;;3.70;1.10;;;16.50;99.90;;;;;;5014843;28;20201;-63
2022/05/28 07:41:12;;;;;;;6.30;1.30;;;16.70;99.90;;;;;;5018913;28;20204;-63
2022/05/28 07:43:40;;;;;;;3.93;1.10;;;17.40;99.90;;;;;;5024212;28;20222;-63
2022/05/28 07:46:15;;;;;;;4.07;0.97;;;17.50;99.90;;;;;;5022565;28;20705;-63
2022/05/28 07:48:43;;;;;;;4.30;1.00;;;17.40;99.90;;;;;;5027904;28;20219;-63
2022/05/28 07:51:10;;;;;;;6.30;1.10;;;17.50;99.90;;;;;;5019931;28;20229;-63
2022/05/28 07:53:37;;;;;;;5.00;1.40;;;17.70;99.90;;;;;;5010896;28;20192;-63
2022/05/28 07:56:04;;;;;;;7.00;1.77;;;17.60;99.90;;;;;;5020441;28;20206;-63
2022/05/28 07:58:32;;;;;;;5.57;1.10;;;17.50;99.90;;;;;;5025823;28;20226;-63
2022/05/28 08:00:59;;;;;;;3.90;1.30;;;17.00;99.90;;;;;;5019972;28;20195;-63
2022/05/28 08:03:26;;;;;;;5.83;1.30;;;17.40;99.90;;;;;;5021083;28;20630;-63
2022/05/28 08:05:54;;;;;;;3.33;1.33;;;17.10;99.90;;;;;;5025183;28;20223;-63
2022/05/28 08:08:24;;;;;;;1.73;1.07;;;17.50;99.90;;;;;;5019343;28;20701;-63
2022/05/28 08:10:51;;;;;;;4.73;1.30;;;17.60;99.90;;;;;;5015818;28;20206;-63
2022/05/28 08:13:21;;;;;;;3.47;1.13;;;17.90;99.90;;;;;;5028822;28;20210;-64
2022/05/28 08:15:49;;;;;;;6.40;1.47;;;17.70;99.90;;;;;;5019696;28;20246;-63
2022/05/28 08:18:18;;;;;;;3.90;1.43;;;17.70;99.90;;;;;;5018472;28;20234;-64
2022/05/28 08:23:31;;;;;;;3.20;1.17;;;18.00;99.90;;;;;;5022140;28;20203;-63
2022/05/28 08:25:59;;;;;;;5.63;1.30;;;17.30;99.90;;;;;;5019237;28;20203;-63
2022/05/28 08:28:26;;;;;;;2.97;1.17;;;17.30;99.90;;;;;;5024226;28;20945;-63
2022/05/28 08:30:53;;;;;;;3.93;1.60;;;17.60;99.90;;;;;;5023392;28;20192;-63
2022/05/28 08:33:20;;;;;;;4.93;1.30;;;17.60;99.90;;;;;;5023998;28;20685;-63
2022/05/28 08:35:50;;;;;;;3.40;1.00;;;17.80;99.90;;;;;;5019539;28;20212;-64
2022/05/28 08:38:19;;;;;;;5.43;1.67;;;17.70;99.90;;;;;;5018834;28;20286;-63
2022/05/28 08:40:55;;;;;;;5.40;1.50;;;17.60;99.90;;;;;;5026312;28;20192;-63
2022/05/28 08:43:26;;;;;;;2.83;1.40;;;17.30;99.90;;;;;;5019102;28;20200;-65
2022/05/28 08:45:53;;;;;;;4.30;1.50;;;17.20;99.90;;;;;;5009257;28;20265;-63
2022/05/28 08:48:40;;;;;;;3.40;1.30;;;17.30;99.90;;;;;;5024658;28;20828;-64
2022/05/28 08:51:44;;;;;;;4.07;1.10;;;17.10;99.90;;;;;;5016774;28;20196;-63
2022/05/28 08:54:34;;;;;;;7.13;1.47;;;17.10;99.90;;;;;;5014484;28;20693;-75
2022/05/28 08:57:06;;;;;;;7.77;1.73;;;16.90;99.90;;;;;;5027694;28;20206;-64
2022/05/28 09:00:00;;;;;;;3.87;1.47;;;17.10;99.90;;;;;;5019994;28;20511;-65
2022/05/28 09:02:41;;;;;;;3.60;1.40;;;17.30;99.90;;;;;;5016917;28;20200;-65
2022/05/28 09:05:23;;;;;;;3.80;1.57;;;17.50;99.90;;;;;;5027364;28;20219;-65
2022/05/28 09:07:52;;;;;;;4.53;1.43;;;17.90;99.90;;;;;;5015995;28;20196;-64
2022/05/28 09:10:19;;;;;;;3.80;1.10;;;17.80;99.90;;;;;;5013576;28;20215;-64
2022/05/28 09:12:53;;;;;;;4.83;1.47;;;18.20;99.90;;;;;;5021060;28;20584;-64
2022/05/28 09:15:19;;;;;;;3.47;1.27;;;18.40;99.90;;;;;;5022804;28;20208;-64
2022/05/28 09:17:50;;;;;;;4.50;1.20;;;18.30;99.90;;;;;;5013289;28;20196;-64
2022/05/28 09:20:30;;;;;;;4.27;1.30;;;18.30;99.90;;;;;;5026737;28;20195;-67
2022/05/28 09:22:57;;;;;;;2.83;1.07;;;18.10;99.90;;;;;;5021821;28;20265;-66
2022/05/28 09:25:26;;;;;;;2.70;1.30;;;18.10;99.90;;;;;;5021348;28;20216;-66
2022/05/28 09:28:08;;;;;;;2.70;1.27;;;17.90;99.90;;;;;;5020485;28;20209;-66
2022/05/28 09:30:59;;;;;;;7.93;1.57;;;17.60;99.90;;;;;;5021930;28;20223;-66
2022/05/28 09:33:46;;;;;;;4.33;1.40;;;17.90;99.90;;;;;;5026850;28;20192;-66
2022/05/28 09:36:28;;;;;;;3.83;1.50;;;18.50;99.90;;;;;;5018831;28;20218;-66
2022/05/28 09:39:05;;;;;;;3.27;1.43;;;19.20;99.90;;;;;;5032957;28;20206;-66
2022/05/28 09:41:45;;;;;;;3.17;1.30;;;19.10;99.90;;;;;;5027852;28;20286;-67
2022/05/28 09:44:31;;;;;;;4.13;1.13;;;18.90;99.90;;;;;;5024833;28;20214;-67
2022/05/28 09:47:12;;;;;;;3.60;1.17;;;18.50;99.90;;;;;;5022395;28;20544;-66
2022/05/28 09:49:54;;;;;;;5.43;1.20;;;17.70;99.90;;;;;;5023437;28;20219;-66
2022/05/28 09:52:26;;;;;;;4.43;1.27;;;17.20;99.90;;;;;;5019059;28;20202;-67
2022/05/28 09:55:11;;;;;;;5.03;1.10;;;17.10;99.90;;;;;;5023968;28;20555;-66
2022/05/28 09:58:01;;;;;;;3.17;1.40;;;17.10;99.90;;;;;;5022608;28;20195;-67
2022/05/28 10:00:28;;;;;;;4.90;1.40;;;17.30;99.90;;;;;;5030452;28;20197;-66
2022/05/28 10:05:55;;;;;;;3.03;1.30;;;17.50;99.90;;;;;;5022854;28;20575;-66
2022/05/28 10:08:30;;;;;;;1.67;1.20;;;17.90;99.90;;;;;;5015084;28;20200;-66
2022/05/28 10:11:01;;;;;;;2.90;1.17;;;18.10;99.90;;;;;;5018250;28;20787;-66
2022/05/28 10:13:30;;;;;;;4.00;1.30;;;18.30;99.90;;;;;;5013794;28;20199;-69
2022/05/28 10:15:59;;;;;;;2.90;1.17;;;18.50;99.90;;;;;;5009484;28;20768;-64
2022/05/28 10:18:35;;;;;;;2.90;1.20;;;18.20;99.90;;;;;;5010176;28;20258;-64
2022/05/28 10:21:16;;;;;;;3.03;1.50;;;18.10;99.90;;;;;;5010690;28;20208;-67
2022/05/28 10:23:50;;;;;;;5.37;2.63;;;17.70;99.90;;;;;;5016786;28;20206;-69
2022/05/28 10:26:25;;;;;;;4.67;1.60;;;17.70;99.90;;;;;;5026587;28;20200;-67
2022/05/28 10:28:55;;;;;;;7.50;1.73;;;17.80;99.90;;;;;;5021220;28;20214;-67
2022/05/28 10:31:31;;;;;;;2.33;1.20;;;17.90;99.90;;;;;;5028956;28;20195;-69
2022/05/28 10:33:59;;;;;;;2.40;1.10;;;17.80;99.90;;;;;;5027926;28;20334;-67
2022/05/28 10:36:29;;;;;;;16.47;6.93;;;17.80;99.90;;;;;;5019861;28;20270;-70
2022/05/28 10:39:12;;;;;;;3.77;2.03;;;18.00;99.90;;;;;;5013780;28;20690;-70
2022/05/28 10:41:42;;;;;;;3.67;1.63;;;18.20;99.90;;;;;;5019799;28;20780;-67
2022/05/28 10:44:13;;;;;;;2.43;1.50;;;18.30;99.90;;;;;;5019176;28;20220;-67
2022/05/28 10:46:39;;;;;;;2.53;1.00;;;18.20;99.90;;;;;;5021035;28;20196;-67
2022/05/28 10:49:40;;;;;;;4.47;1.30;;;18.10;99.90;;;;;;5019483;28;20210;-70
2022/05/28 10:52:18;;;;;;;4.60;1.10;;;17.80;99.90;;;;;;5022869;28;20210;-70
2022/05/28 10:54:52;;;;;;;2.13;1.10;;;17.80;99.90;;;;;;5023789;28;20226;-67
2022/05/28 10:57:28;;;;;;;3.90;1.20;;;18.00;99.90;;;;;;5014637;28;20211;-66
2022/05/28 11:00:11;;;;;;;1.40;0.90;;;18.40;99.90;;;;;;5017396;28;20594;-66
2022/05/28 11:03:05;;;;;;;2.20;1.00;;;18.60;99.90;;;;;;5014655;28;20606;-65
2022/05/28 11:05:57;;;;;;;2.20;1.00;;;18.60;99.90;;;;;;5016885;28;20242;-65
2022/05/28 11:08:46;;;;;;;3.67;1.27;;;18.60;99.90;;;;;;5015757;28;20200;-68
2022/05/28 11:11:43;;;;;;;8.47;1.57;;;18.20;99.90;;;;;;5014768;28;20226;-65
2022/05/28 11:14:27;;;;;;;4.20;1.30;;;18.00;99.90;;;;;;5012895;28;20231;-66
2022/05/28 11:17:14;;;;;;;5.10;2.97;;;17.40;99.90;;;;;;5015049;28;20440;-65
2022/05/28 11:20:10;;;;;;;4.53;1.60;;;17.20;99.90;;;;;;5017272;28;20666;-66
2022/05/28 11:23:08;;;;;;;4.27;1.30;;;17.50;99.90;;;;;;5014232;28;20207;-65
2022/05/28 11:25:54;;;;;;;2.40;1.00;;;17.90;99.90;;;;;;5019450;28;20235;-66
2022/05/28 11:28:45;;;;;;;2.00;1.30;;;18.20;99.90;;;;;;5015670;28;20203;-65
2022/05/28 11:31:29;;;;;;;2.43;1.20;;;18.40;99.90;;;;;;5016704;28;20223;-66
2022/05/28 11:34:01;;;;;;;2.77;1.10;;;18.60;99.90;;;;;;5015291;28;20215;-66
2022/05/28 11:36:36;;;;;;;3.77;1.37;;;19.10;99.90;;;;;;5010904;28;20219;-66
2022/05/28 11:39:26;;;;;;;1.87;1.10;;;18.80;99.90;;;;;;5016692;28;20203;-66
2022/05/28 11:42:06;;;;;;;2.93;1.40;;;18.60;99.90;;;;;;5016000;28;20204;-67
2022/05/28 11:44:41;;;;;;;2.50;1.23;;;18.00;99.90;;;;;;5012297;28;20706;-68
2022/05/28 11:47:11;;;;;;;2.97;1.40;;;18.10;99.90;;;;;;5015935;28;20328;-67
2022/05/28 11:52:49;;;;;;;4.43;1.33;;;18.80;99.90;;;;;;5018386;28;20218;-69
2022/05/28 11:55:22;;;;;;;1.47;1.10;;;18.90;99.90;;;;;;5019595;28;20215;-69
2022/05/28 11:58:03;;;;;;;2.77;1.30;;;19.10;99.90;;;;;;5016534;28;20647;-65
2022/05/28 12:00:33;;;;;;;4.27;1.10;;;19.30;99.90;;;;;;5021111;28;20257;-64
2022/05/28 12:03:04;;;;;;;3.13;1.27;;;18.90;99.90;;;;;;5027288;28;20198;-64
2022/05/28 12:05:42;;;;;;;1.93;1.30;;;18.60;99.90;;;;;;5023959;28;20306;-65
2022/05/28 12:08:27;;;;;;;4.53;1.30;;;18.50;99.90;;;;;;5025191;28;20200;-65
2022/05/28 12:11:03;;;;;;;2.63;1.20;;;18.50;99.90;;;;;;5024740;28;20760;-65
2022/05/28 12:13:34;;;;;;;1.70;1.10;;;19.20;99.90;;;;;;5015722;28;20199;-65
2022/05/28 12:16:10;;;;;;;4.50;1.30;;;19.70;99.90;;;;;;5019578;28;20202;-65
2022/05/28 12:18:53;;;;;;;3.00;1.30;;;19.60;99.90;;;;;;5012731;28;20639;-66
2022/05/28 12:21:34;;;;;;;1.50;1.00;;;19.60;99.90;;;;;;5021719;28;20206;-64
2022/05/28 12:24:11;;;;;;;2.70;1.33;;;19.20;99.90;;;;;;5024405;28;20215;-64
2022/05/28 12:29:35;;;;;;;3.97;1.40;;;18.40;99.90;;;;;;5017192;28;20195;-65
2022/05/28 12:32:17;;;;;;;3.50;1.60;;;18.40;99.90;;;;;;5014652;28;20215;-65
2022/05/28 12:34:52;;;;;;;2.50;1.40;;;18.60;99.90;;;;;;5014735;28;20629;-65
2022/05/28 12:37:24;;;;;;;4.77;1.30;;;19.00;99.90;;;;;;5017455;28;20191;-66
2022/05/28 12:40:18;;;;;;;3.87;1.40;;;19.10;99.90;;;;;;5016171;28;20207;-67
2022/05/28 12:42:45;;;;;;;3.37;1.40;;;18.90;99.90;;;;;;5012856;28;20196;-67
2022/05/28 12:45:37;;;;;;;5.20;1.63;;;18.60;99.90;;;;;;5017979;28;20224;-68
2022/05/28 12:48:13;;;;;;;5.53;1.57;;;18.70;99.90;;;;;;5016238;28;20203;-67
2022/05/28 12:51:22;;;;;;;3.73;1.30;;;19.20;99.90;;;;;;5013901;28;20226;-69
2022/05/28 12:53:58;;;;;;;3.63;1.50;;;19.50;99.90;;;;;;5013197;28;20202;-67
2022/05/28 12:56:28;;;;;;;3.07;1.37;;;19.40;99.90;;;;;;5013509;28;20674;-69
2022/05/28 12:59:07;;;;;;;2.13;1.30;;;19.30;99.90;;;;;;5014028;28;20202;-66
2022/05/28 13:01:37;;;;;;;2.50;1.20;;;19.00;99.90;;;;;;5015018;28;20195;-65
2022/05/28 13:04:17;;;;;;;3.07;1.10;;;18.70;99.90;;;;;;5016448;28;20223;-66
2022/05/28 13:06:48;;;;;;;1.43;1.20;;;18.60;99.90;;;;;;5013752;28;20195;-66
2022/05/28 13:09:20;;;;;;;4.17;1.20;;;18.80;99.90;;;;;;5013722;28;20241;-65
2022/05/28 13:11:58;;;;;;;3.43;1.10;;;19.40;99.90;;;;;;5008980;28;20220;-70
2022/05/28 13:14:43;;;;;;;4.50;1.20;;;19.90;99.90;;;;;;5016629;28;20215;-69
2022/05/28 13:17:39;;;;;;;2.17;1.20;;;19.50;99.90;;;;;;5014901;28;20205;-67
2022/05/28 13:20:44;;;;;;;1.83;1.03;;;19.40;99.90;;;;;;5013321;28;20674;-70
2022/05/28 13:23:26;;;;;;;1.67;1.10;;;19.50;99.90;;;;;;5028606;28;20202;-67
2022/05/28 13:26:26;;;;;;;1.23;1.00;;;19.30;99.90;;;;;;5015044;28;20602;-67